createdAt,value
2018-04-22T00:01:36.675Z,93.40
2018-04-22T00:04:03.906Z,93.50
2018-04-22T00:06:30.381Z,93.50
2018-04-22T00:08:56.810Z,93.50
2018-04-22T00:11:24.030Z,93.70
2018-04-22T00:13:50.446Z,93.70
2018-04-22T00:16:16.890Z,93.70
2018-04-22T00:18:43.334Z,93.60
2018-04-22T00:21:09.786Z,93.70
2018-04-22T00:23:36.985Z,94.20
2018-04-22T00:26:03.513Z,93.90
2018-04-22T00:28:29.928Z,94.00
2018-04-22T00:30:56.377Z,94.10
2018-04-22T00:33:22.814Z,94.30
2018-04-22T00:35:49.227Z,94.40
2018-04-22T00:38:15.694Z,94.30
2018-04-22T00:40:42.152Z,93.60
2018-04-22T00:43:08.635Z,93.80
2018-04-22T00:45:35.087Z,93.60
2018-04-22T00:48:01.559Z,93.70
2018-04-22T00:50:28.001Z,93.90
2018-04-22T00:52:55.209Z,94.00
2018-04-22T00:55:21.642Z,94.00
2018-04-22T00:57:48.052Z,94.00
2018-04-22T01:00:14.509Z,94.00
2018-04-22T01:02:40.958Z,94.10
2018-04-22T01:05:07.450Z,94.00
2018-04-22T01:07:34.605Z,94.20
2018-04-22T01:10:01.796Z,94.40
2018-04-22T01:12:28.213Z,94.40
2018-04-22T01:14:54.690Z,94.30
2018-04-22T01:17:21.110Z,93.70
2018-04-22T01:19:47.570Z,93.90
2018-04-22T01:22:14.008Z,94.20
2018-04-22T01:24:41.220Z,94.60
2018-04-22T01:27:07.712Z,94.60
2018-04-22T01:29:34.169Z,94.10
2018-04-22T01:32:00.606Z,94.20
2018-04-22T01:34:27.083Z,94.50
2018-04-22T01:36:53.512Z,94.50
2018-04-22T01:39:19.957Z,93.90
2018-04-22T01:41:46.457Z,94.20
2018-04-22T01:44:12.889Z,94.50
2018-04-22T01:46:39.309Z,94.20
2018-04-22T01:49:05.759Z,94.30
2018-04-22T01:51:32.225Z,94.60
2018-04-22T01:53:58.651Z,95.00
2018-04-22T01:56:25.105Z,94.90
2018-04-22T01:58:52.284Z,94.70
2018-04-22T02:01:18.745Z,94.30
2018-04-22T02:03:45.174Z,94.20
2018-04-22T02:06:11.635Z,94.00
2018-04-22T02:08:38.118Z,94.20
2018-04-22T02:11:04.565Z,94.30
2018-04-22T02:13:31.087Z,94.10
2018-04-22T02:15:57.551Z,94.30
2018-04-22T02:18:24.064Z,94.30
2018-04-22T02:20:50.566Z,94.30
2018-04-22T02:23:17.062Z,94.60
2018-04-22T02:25:43.592Z,94.30
2018-04-22T02:28:10.083Z,94.30
2018-04-22T02:30:36.599Z,94.60
2018-04-22T02:33:03.847Z,95.40
2018-04-22T02:35:30.365Z,95.00
2018-04-22T02:37:56.860Z,95.10
2018-04-22T02:40:23.378Z,94.70
2018-04-22T02:42:50.648Z,94.90
2018-04-22T02:45:17.153Z,94.90
2018-04-22T02:47:43.675Z,95.20
2018-04-22T02:50:10.185Z,95.30
2018-04-22T02:52:36.666Z,95.40
2018-04-22T02:55:03.239Z,95.40
2018-04-22T02:57:29.938Z,95.50
2018-04-22T02:59:57.197Z,96.20
2018-04-22T03:02:23.698Z,95.90
2018-04-22T03:04:50.178Z,95.50
2018-04-22T03:07:16.671Z,95.70
2018-04-22T03:09:44.372Z,95.50
2018-04-22T03:12:10.857Z,95.80
2018-04-22T03:14:37.344Z,95.80
2018-04-22T03:17:03.829Z,95.60
2018-04-22T03:19:30.329Z,95.70
2018-04-22T03:21:56.855Z,95.80
2018-04-22T03:24:23.365Z,95.90
2018-04-22T03:26:50.621Z,95.60
2018-04-22T03:29:17.109Z,95.80
2018-04-22T03:31:44.551Z,96.10
2018-04-22T03:34:11.043Z,96.20
2018-04-22T03:36:37.543Z,96.10
2018-04-22T03:39:04.155Z,96.10
2018-04-22T03:41:30.636Z,96.10
2018-04-22T03:43:57.194Z,96.30
2018-04-22T03:46:24.434Z,96.10
2018-04-22T03:48:51.712Z,96.70
2018-04-22T03:51:18.201Z,96.30
2018-04-22T03:53:44.721Z,96.30
2018-04-22T03:56:11.223Z,96.30
2018-04-22T03:58:37.720Z,96.40
2018-04-22T04:01:06.467Z,96.00
2018-04-22T04:03:32.947Z,96.00
2018-04-22T04:05:59.432Z,95.90
2018-04-22T04:08:25.930Z,96.20
2018-04-22T04:10:53.177Z,96.70
2018-04-22T04:13:26.622Z,96.40
2018-04-22T04:15:53.102Z,96.30
2018-04-22T04:21:39.590Z,96.40
2018-04-22T04:24:27.132Z,96.60
2018-04-22T04:27:18.453Z,96.30
2018-04-22T04:29:45.033Z,96.20
2018-04-22T04:32:11.565Z,96.30
2018-04-22T04:34:38.078Z,96.60
2018-04-22T04:37:04.572Z,96.50
2018-04-22T04:39:31.126Z,96.30
2018-04-22T04:42:07.705Z,96.50
2018-04-22T04:44:39.808Z,96.50
2018-04-22T04:47:07.044Z,96.60
2018-04-22T04:49:34.268Z,96.70
2018-04-22T04:52:00.774Z,96.70
2018-04-22T04:54:27.301Z,96.70
2018-04-22T04:56:53.846Z,96.80
2018-04-22T04:59:20.363Z,96.90
2018-04-22T05:01:46.882Z,97.00
2018-04-22T05:04:14.137Z,97.00
2018-04-22T05:06:40.635Z,97.00
2018-04-22T05:09:07.154Z,97.10
2018-04-22T05:11:33.648Z,96.90
2018-04-22T05:14:00.883Z,97.10
2018-04-22T05:16:27.390Z,97.10
2018-04-22T05:18:53.900Z,97.00
2018-04-22T05:21:20.405Z,96.90
2018-04-22T05:23:47.662Z,96.60
2018-04-22T05:26:14.902Z,96.50
2018-04-22T05:28:42.159Z,97.00
2018-04-22T05:31:09.401Z,96.70
2018-04-22T05:33:35.887Z,96.70
2018-04-22T05:36:02.387Z,96.60
2018-04-22T05:38:28.873Z,96.60
2018-04-22T05:40:55.626Z,96.50
2018-04-22T05:43:22.117Z,96.50
2018-04-22T05:45:48.631Z,96.10
2018-04-22T05:48:16.027Z,95.30
2018-04-22T05:50:42.525Z,95.30
2018-04-22T05:53:09.747Z,94.60
2018-04-22T05:55:36.206Z,94.50
2018-04-22T05:58:03.425Z,94.50
2018-04-22T06:00:29.913Z,94.10
2018-04-22T06:03:12.335Z,94.10
2018-04-22T06:05:38.865Z,94.10
2018-04-22T06:08:05.345Z,94.20
2018-04-22T06:10:31.837Z,94.20
2018-04-22T06:12:58.292Z,93.90
2018-04-22T06:15:24.726Z,93.70
2018-04-22T06:17:51.140Z,93.60
2018-04-22T06:20:17.560Z,93.40
2018-04-22T06:22:43.963Z,93.40
2018-04-22T06:25:10.391Z,93.30
2018-04-22T06:27:36.824Z,93.10
2018-04-22T06:30:03.290Z,93.50
2018-04-22T06:32:29.694Z,93.50
2018-04-22T06:34:56.122Z,93.50
2018-04-22T06:37:22.539Z,93.10
2018-04-22T06:39:48.957Z,93.30
2018-04-22T06:42:15.364Z,93.20
2018-04-22T06:44:41.782Z,93.10
2018-04-22T06:47:08.941Z,92.70
2018-04-22T06:49:35.358Z,92.70
2018-04-22T06:52:02.525Z,93.20
2018-04-22T06:54:28.945Z,93.20
2018-04-22T06:56:55.357Z,92.80
2018-04-22T06:59:22.524Z,92.60
2018-04-22T07:01:48.928Z,92.60
2018-04-22T07:04:15.350Z,92.50
2018-04-22T07:06:41.777Z,92.50
2018-04-22T07:09:08.202Z,92.00
2018-04-22T07:11:34.632Z,91.90
2018-04-22T07:14:01.074Z,92.10
2018-04-22T07:16:27.495Z,91.70
2018-04-22T07:18:53.898Z,91.70
2018-04-22T07:21:21.077Z,91.20
2018-04-22T07:23:47.486Z,91.20
2018-04-22T07:26:13.917Z,91.10
2018-04-22T07:28:41.101Z,91.20
2018-04-22T07:31:07.527Z,91.20
2018-04-22T07:33:33.938Z,90.70
2018-04-22T07:36:00.344Z,90.50
2018-04-22T07:38:27.524Z,90.10
2018-04-22T07:40:54.684Z,90.00
2018-04-22T07:43:21.107Z,90.00
2018-04-22T07:45:48.283Z,90.10
2018-04-22T07:48:14.687Z,90.00
2018-04-22T07:50:41.108Z,89.40
2018-04-22T07:53:08.360Z,93.60
2018-04-22T07:55:35.562Z,97.00
2018-04-22T07:58:02.048Z,97.00
2018-04-22T08:00:29.206Z,99.90
2018-04-22T08:02:55.640Z,99.90
2018-04-22T08:05:22.070Z,99.90
2018-04-22T08:07:49.259Z,99.90
2018-04-22T08:10:16.731Z,99.90
2018-04-22T08:12:42.170Z,99.90
2018-04-22T08:15:08.705Z,99.90
2018-04-22T08:17:35.176Z,99.90
2018-04-22T08:20:01.648Z,99.90
2018-04-22T08:22:28.113Z,99.90
2018-04-22T08:24:56.047Z,99.90
2018-04-22T08:27:22.501Z,99.90
2018-04-22T08:29:48.973Z,99.90
2018-04-22T08:32:16.186Z,99.90
2018-04-22T08:34:42.709Z,99.90
2018-04-22T08:37:09.174Z,99.90
2018-04-22T08:39:35.666Z,99.90
2018-04-22T08:42:02.100Z,99.90
2018-04-22T08:44:28.579Z,99.90
2018-04-22T08:49:49.207Z,99.90
2018-04-22T08:52:16.398Z,99.90
2018-04-22T08:54:42.874Z,99.90
2018-04-22T08:57:09.346Z,99.90
2018-04-22T08:59:35.802Z,99.90
2018-04-22T09:02:02.280Z,99.90
2018-04-22T09:04:28.675Z,99.90
2018-04-22T09:06:55.092Z,99.90
2018-04-22T09:09:21.579Z,99.90
2018-04-22T09:11:48.021Z,99.90
2018-04-22T09:14:15.223Z,99.90
2018-04-22T09:16:41.669Z,99.90
2018-04-22T09:19:08.107Z,99.90
2018-04-22T09:21:34.579Z,99.90
2018-04-22T09:24:01.851Z,99.90
2018-04-22T09:26:28.319Z,99.90
2018-04-22T09:28:54.762Z,99.90
2018-04-22T09:31:21.196Z,99.90
2018-04-22T09:33:47.621Z,99.90
2018-04-22T09:36:14.046Z,99.30
2018-04-22T09:38:40.464Z,99.90
2018-04-22T09:41:06.900Z,99.40
2018-04-22T09:43:33.323Z,99.90
2018-04-22T09:46:00.551Z,95.60
2018-04-22T09:48:26.944Z,95.60
2018-04-22T09:50:53.367Z,97.20
2018-04-22T09:53:19.806Z,97.00
2018-04-22T09:55:46.251Z,95.60
2018-04-22T09:58:12.680Z,94.40
2018-04-22T10:00:39.140Z,93.10
2018-04-22T10:03:06.458Z,90.90
2018-04-22T10:05:39.032Z,90.30
2018-04-22T10:08:05.469Z,90.30
2018-04-22T10:10:31.890Z,86.40
2018-04-22T10:12:58.328Z,88.20
2018-04-22T10:15:24.758Z,87.30
2018-04-22T10:17:51.186Z,84.10
2018-04-22T10:20:17.602Z,87.90
2018-04-22T10:22:44.782Z,76.80
2018-04-22T10:25:11.206Z,76.50
2018-04-22T10:27:37.655Z,78.80
2018-04-22T10:30:04.101Z,75.60
2018-04-22T10:32:30.531Z,77.60
2018-04-22T10:34:56.969Z,77.20
2018-04-22T10:37:23.432Z,72.70
2018-04-22T10:39:49.855Z,72.80
2018-04-22T10:42:16.287Z,73.30
2018-04-22T10:44:42.714Z,72.70
2018-04-22T10:47:09.158Z,67.60
2018-04-22T10:49:36.324Z,64.70
2018-04-22T10:52:02.761Z,64.60
2018-04-22T10:54:29.919Z,66.20
2018-04-22T10:56:57.122Z,67.80
2018-04-22T10:59:23.551Z,68.50
2018-04-22T11:01:49.957Z,66.80
2018-04-22T11:04:16.380Z,67.20
2018-04-22T11:06:43.578Z,67.60
2018-04-22T11:09:09.995Z,67.60
2018-04-22T11:11:36.401Z,67.00
2018-04-22T11:14:02.857Z,65.70
2018-04-22T11:16:29.272Z,60.70
2018-04-22T11:18:55.714Z,57.00
2018-04-22T11:21:22.143Z,53.10
2018-04-22T11:23:48.590Z,54.60
2018-04-22T11:26:15.027Z,54.20
2018-04-22T11:28:41.461Z,54.10
2018-04-22T11:31:07.903Z,52.80
2018-04-22T11:33:34.322Z,51.80
2018-04-22T11:36:00.770Z,50.40
2018-04-22T11:38:27.204Z,51.40
2018-04-22T11:40:53.607Z,48.80
2018-04-22T11:43:20.030Z,51.40
2018-04-22T11:45:47.212Z,50.90
2018-04-22T11:48:13.640Z,50.90
2018-04-22T11:50:40.063Z,51.50
2018-04-22T11:53:06.496Z,51.50
2018-04-22T11:55:32.932Z,49.70
2018-04-22T11:57:59.358Z,51.70
2018-04-22T12:00:25.855Z,50.70
2018-04-22T12:02:52.243Z,50.20
2018-04-22T12:05:18.696Z,50.30
2018-04-22T12:07:45.139Z,51.40
2018-04-22T12:10:11.568Z,49.50
2018-04-22T12:12:38.014Z,50.20
2018-04-22T12:15:04.475Z,50.40
2018-04-22T12:17:31.659Z,49.40
2018-04-22T12:19:58.092Z,49.40
2018-04-22T12:22:24.507Z,49.70
2018-04-22T12:24:50.946Z,48.90
2018-04-22T12:27:17.369Z,50.50
2018-04-22T12:29:44.524Z,49.30
2018-04-22T12:32:11.684Z,48.50
2018-04-22T12:34:38.100Z,48.50
2018-04-22T12:37:04.529Z,49.20
2018-04-22T12:39:30.952Z,50.10
2018-04-22T12:41:57.374Z,50.50
2018-04-22T12:44:23.793Z,49.50
2018-04-22T12:46:50.212Z,49.70
2018-04-22T12:49:16.651Z,48.60
2018-04-22T12:51:43.077Z,47.50
2018-04-22T12:54:09.502Z,47.90
2018-04-22T12:56:35.933Z,48.20
2018-04-22T12:59:02.339Z,47.20
2018-04-22T13:01:29.484Z,47.30
2018-04-22T13:03:56.644Z,46.90
2018-04-22T13:06:23.820Z,47.10
2018-04-22T13:08:50.255Z,47.10
2018-04-22T13:11:16.717Z,47.00
2018-04-22T13:13:43.142Z,47.10
2018-04-22T13:16:09.559Z,46.60
2018-04-22T13:18:35.994Z,47.00
2018-04-22T13:21:02.437Z,48.50
2018-04-22T13:23:28.862Z,49.60
2018-04-22T13:25:55.285Z,48.80
2018-04-22T13:30:45.726Z,50.40
2018-04-22T13:33:12.133Z,51.40
2018-04-22T13:35:38.560Z,50.40
2018-04-22T13:38:04.993Z,50.90
2018-04-22T13:40:31.413Z,51.20
2018-04-22T13:42:57.831Z,52.10
2018-04-22T13:45:24.982Z,51.00
2018-04-22T13:47:52.145Z,50.40
2018-04-22T13:50:19.297Z,50.10
2018-04-22T13:52:46.457Z,49.10
2018-04-22T13:55:12.889Z,49.10
2018-04-22T13:57:39.319Z,48.60
2018-04-22T14:00:05.750Z,50.70
2018-04-22T14:02:32.205Z,50.40
2018-04-22T14:04:58.627Z,51.00
2018-04-22T14:07:25.066Z,51.30
2018-04-22T14:09:51.504Z,52.30
2018-04-22T14:12:17.914Z,53.00
2018-04-22T14:14:44.330Z,52.00
2018-04-22T14:17:11.512Z,51.10
2018-04-22T14:19:37.917Z,51.50
2018-04-22T14:22:05.103Z,52.00
2018-04-22T14:24:31.514Z,51.80
2018-04-22T14:26:57.961Z,51.30
2018-04-22T14:29:24.382Z,51.50
2018-04-22T14:31:50.831Z,51.00
2018-04-22T14:34:17.253Z,52.60
2018-04-22T14:36:43.669Z,52.70
2018-04-22T14:39:10.108Z,49.90
2018-04-22T14:41:36.542Z,51.40
2018-04-22T14:44:16.036Z,52.40
2018-04-22T14:46:42.448Z,52.40
2018-04-22T14:49:08.886Z,52.90
2018-04-22T14:51:35.305Z,52.90
2018-04-22T14:54:01.724Z,52.00
2018-04-22T14:56:28.155Z,51.20
2018-04-22T14:58:54.572Z,50.90
2018-04-22T15:01:21.763Z,52.00
2018-04-22T15:03:48.199Z,51.90
2018-04-22T15:06:14.627Z,53.40
2018-04-22T15:08:41.040Z,53.70
2018-04-22T15:11:08.215Z,54.80
2018-04-22T15:13:34.649Z,54.80
2018-04-22T15:16:01.093Z,54.40
2018-04-22T15:18:27.519Z,52.40
2018-04-22T15:20:53.957Z,51.30
2018-04-22T15:23:20.369Z,48.50
2018-04-22T15:25:46.773Z,48.80
2018-04-22T15:28:13.211Z,47.30
2018-04-22T15:30:40.390Z,43.90
2018-04-22T15:33:06.802Z,43.90
2018-04-22T15:35:33.211Z,42.80
2018-04-22T15:37:59.653Z,43.40
2018-04-22T15:40:26.071Z,41.90
2018-04-22T15:42:52.493Z,41.30
2018-04-22T15:45:18.911Z,41.80
2018-04-22T15:47:45.443Z,42.50
2018-04-22T15:50:11.851Z,42.20
2018-04-22T15:52:38.283Z,42.80
2018-04-22T15:55:04.737Z,43.00
2018-04-22T15:57:31.169Z,43.90
2018-04-22T15:59:57.611Z,43.80
2018-04-22T16:02:24.026Z,43.80
2018-04-22T16:04:50.438Z,45.60
2018-04-22T16:07:17.619Z,43.70
2018-04-22T16:09:44.051Z,43.60
2018-04-22T16:12:10.476Z,44.50
2018-04-22T16:14:36.956Z,43.90
2018-04-22T16:17:03.378Z,43.40
2018-04-22T16:19:29.833Z,42.70
2018-04-22T16:21:56.232Z,41.50
2018-04-22T16:24:22.663Z,40.70
2018-04-22T16:26:49.091Z,40.30
2018-04-22T16:29:15.526Z,40.60
2018-04-22T16:31:41.939Z,40.90
2018-04-22T16:34:08.362Z,40.30
2018-04-22T16:36:35.517Z,42.40
2018-04-22T16:39:02.037Z,41.70
2018-04-22T16:41:29.471Z,39.90
2018-04-22T16:43:56.687Z,39.60
2018-04-22T16:46:23.127Z,39.50
2018-04-22T16:48:49.530Z,40.00
2018-04-22T16:51:15.948Z,41.40
2018-04-22T16:53:42.373Z,41.20
2018-04-22T16:56:08.791Z,42.00
2018-04-22T16:58:35.212Z,41.70
2018-04-22T17:01:01.646Z,41.70
2018-04-22T17:03:28.087Z,41.50
2018-04-22T17:05:54.571Z,40.30
2018-04-22T17:08:20.962Z,39.80
2018-04-22T17:10:47.379Z,40.50
2018-04-22T17:13:13.811Z,41.10
2018-04-22T17:15:40.246Z,41.40
2018-04-22T17:18:06.663Z,42.00
2018-04-22T17:20:33.084Z,42.50
2018-04-22T17:22:59.517Z,42.80
2018-04-22T17:25:25.925Z,43.90
2018-04-22T17:27:53.106Z,44.30
2018-04-22T17:30:19.562Z,44.30
2018-04-22T17:32:45.982Z,44.10
2018-04-22T17:35:12.409Z,44.90
2018-04-22T17:37:38.835Z,45.10
2018-04-22T17:40:05.266Z,45.70
2018-04-22T17:42:31.714Z,45.90
2018-04-22T17:44:58.149Z,46.50
2018-04-22T17:47:24.582Z,46.50
2018-04-22T17:49:51.020Z,47.00
2018-04-22T17:52:17.483Z,47.60
2018-04-22T17:54:43.904Z,48.10
2018-04-22T17:57:10.332Z,48.30
2018-04-22T17:59:36.812Z,48.60
2018-04-22T18:02:04.003Z,48.90
2018-04-22T18:04:30.425Z,48.90
2018-04-22T18:06:56.857Z,47.80
2018-04-22T18:09:23.289Z,48.00
2018-04-22T18:11:49.704Z,48.70
2018-04-22T18:14:16.873Z,49.00
2018-04-22T18:16:43.332Z,48.90
2018-04-22T18:19:09.771Z,49.00
2018-04-22T18:21:36.191Z,49.70
2018-04-22T18:24:02.629Z,50.00
2018-04-22T18:26:29.060Z,49.80
2018-04-22T18:28:55.488Z,50.20
2018-04-22T18:31:21.916Z,50.30
2018-04-22T18:33:48.396Z,51.40
2018-04-22T18:36:14.862Z,51.50
2018-04-22T18:38:41.259Z,51.00
2018-04-22T18:41:09.173Z,51.70
2018-04-22T18:43:35.596Z,51.70
2018-04-22T18:46:02.769Z,52.80
2018-04-22T18:48:29.192Z,52.80
2018-04-22T18:50:55.615Z,56.20
2018-04-22T18:53:22.032Z,56.80
2018-04-22T18:55:49.174Z,60.20
2018-04-22T18:58:15.607Z,60.20
2018-04-22T19:00:42.030Z,62.00
2018-04-22T19:03:08.449Z,64.90
2018-04-22T19:05:34.881Z,66.90
2018-04-22T19:08:01.318Z,67.00
2018-04-22T19:10:27.746Z,70.40
2018-04-22T19:12:54.159Z,71.70
2018-04-22T19:15:20.572Z,71.50
2018-04-22T19:17:46.990Z,72.10
2018-04-22T19:20:13.425Z,73.10
2018-04-22T19:22:40.598Z,75.00
2018-04-22T19:25:07.053Z,75.00
2018-04-22T19:27:33.481Z,75.80
2018-04-22T19:29:59.944Z,76.90
2018-04-22T19:32:26.379Z,79.50
2018-04-22T19:34:52.862Z,79.10
2018-04-22T19:37:19.238Z,80.10
2018-04-22T19:39:45.666Z,81.90
2018-04-22T19:42:12.157Z,82.20
2018-04-22T19:44:38.583Z,82.90
2018-04-22T19:47:05.073Z,83.80
2018-04-22T19:49:31.570Z,84.40
2018-04-22T19:51:58.008Z,84.10
2018-04-22T19:54:24.475Z,82.20
2018-04-22T19:56:50.953Z,79.50
2018-04-22T19:59:17.393Z,78.10
2018-04-22T20:01:43.847Z,77.70
2018-04-22T20:04:10.257Z,77.70
2018-04-22T20:06:36.742Z,76.20
2018-04-22T20:09:03.253Z,74.50
2018-04-22T20:11:29.734Z,75.00
2018-04-22T20:13:56.935Z,75.00
2018-04-22T20:16:23.367Z,74.50
2018-04-22T20:18:49.783Z,74.80
2018-04-22T20:21:16.211Z,75.20
2018-04-22T20:23:42.670Z,72.30
2018-04-22T20:26:09.106Z,73.90
2018-04-22T20:28:35.531Z,73.30
2018-04-22T20:31:01.957Z,72.40
2018-04-22T20:33:28.375Z,72.60
2018-04-22T20:35:54.827Z,73.70
2018-04-22T20:38:21.273Z,73.30
2018-04-22T20:40:47.701Z,73.00
2018-04-22T20:43:14.180Z,72.00
2018-04-22T20:45:40.650Z,71.70
2018-04-22T20:48:07.097Z,71.90
2018-04-22T20:50:33.562Z,70.90
2018-04-22T20:52:59.986Z,71.70
2018-04-22T20:55:26.437Z,71.50
2018-04-22T20:57:52.851Z,70.50
2018-04-22T21:00:19.302Z,69.10
2018-04-22T21:02:45.796Z,68.40
2018-04-22T21:05:12.274Z,68.70
2018-04-22T21:07:38.717Z,67.30
2018-04-22T21:10:05.223Z,66.90
2018-04-22T21:12:31.700Z,68.00
2018-04-22T21:14:58.153Z,66.30
2018-04-22T21:17:24.569Z,63.10
2018-04-22T21:19:51.016Z,62.50
2018-04-22T21:22:17.465Z,63.00
2018-04-22T21:24:43.912Z,64.00
2018-04-22T21:27:10.432Z,67.80
2018-04-22T21:29:37.630Z,71.20
2018-04-22T21:32:04.042Z,71.10
2018-04-22T21:34:31.518Z,89.60
2018-04-22T21:36:57.937Z,97.90
2018-04-22T21:39:24.364Z,98.90
2018-04-22T21:41:50.807Z,99.90
2018-04-22T21:44:17.228Z,99.90
2018-04-22T21:46:43.642Z,99.90
2018-04-22T21:49:10.816Z,99.90
2018-04-22T21:51:37.226Z,99.90
2018-04-22T21:54:03.669Z,99.90
2018-04-22T21:56:30.120Z,99.90
2018-04-22T21:58:56.600Z,99.90
2018-04-22T22:01:23.022Z,99.90
2018-04-22T22:03:49.450Z,99.90
2018-04-22T22:06:15.908Z,99.90
2018-04-22T22:08:42.326Z,99.90
2018-04-22T22:11:08.781Z,99.90
2018-04-22T22:13:35.222Z,99.90
2018-04-22T22:16:02.423Z,99.90
2018-04-22T22:18:28.875Z,99.90
2018-04-22T22:20:55.310Z,99.90
2018-04-22T22:23:21.772Z,99.90
2018-04-22T22:25:48.230Z,99.90
2018-04-22T22:28:14.662Z,99.90
2018-04-22T22:30:41.077Z,99.90
2018-04-22T22:33:07.542Z,99.90
2018-04-22T22:35:33.960Z,99.90
2018-04-22T22:38:00.407Z,99.90
2018-04-22T22:40:26.854Z,99.90
2018-04-22T22:42:53.274Z,99.90
2018-04-22T22:45:19.766Z,99.90
2018-04-22T22:47:47.689Z,99.90
2018-04-22T22:50:14.122Z,99.90
2018-04-22T22:52:40.552Z,99.90
2018-04-22T22:55:06.965Z,99.90
2018-04-22T22:57:33.412Z,99.90
2018-04-22T22:59:59.843Z,99.90
2018-04-22T23:02:26.281Z,99.90
2018-04-22T23:04:52.708Z,99.90
2018-04-22T23:07:19.164Z,99.90
2018-04-22T23:09:45.600Z,99.90
2018-04-22T23:12:12.020Z,99.90
2018-04-22T23:14:38.449Z,99.90
2018-04-22T23:17:04.858Z,99.90
2018-04-22T23:19:32.114Z,99.90
2018-04-22T23:21:58.534Z,99.90
2018-04-22T23:24:25.694Z,99.90
2018-04-22T23:26:52.856Z,99.90
2018-04-22T23:29:19.284Z,99.90
2018-04-22T23:31:45.719Z,99.90
2018-04-22T23:34:12.157Z,99.90
2018-04-22T23:36:38.616Z,99.90
2018-04-22T23:39:05.100Z,99.90
2018-04-22T23:41:31.560Z,99.90
2018-04-22T23:43:57.966Z,99.90
2018-04-22T23:46:24.370Z,99.90
2018-04-22T23:48:50.803Z,99.90
2018-04-22T23:51:17.221Z,99.90
2018-04-22T23:53:43.639Z,99.90
2018-04-22T23:56:10.057Z,99.90
2018-04-22T23:58:36.465Z,99.90
